Time;durP1;ratioP1;P1;durP2;ratioP2;P2;SDS_P1;SDS_P2;PMS_P1;PMS_P2;Temp;Humidity;BMP_temperature;BMP_pressure;BME280_temperature;BME280_humidity;BME280_pressure;Samples;Min_cycle;Max_cycle;Signal;HPM_P1;HPM_P2
2022/12/26 00:00:39;;;;;;;5.47;3.53;;;;;;;;;;5023984;28;20482;-73
2022/12/26 00:03:05;;;;;;;5.15;3.08;;;;;;;;;;5037472;28;20649;-72
2022/12/26 00:05:35;;;;;;;5.28;3.25;;;;;;;;;;5033231;28;20036;-73
2022/12/26 00:08:02;;;;;;;9.05;3.63;;;;;;;;;;5038750;28;20076;-72
2022/12/26 00:10:28;;;;;;;3.92;2.90;;;;;;;;;;5031666;28;20555;-73
2022/12/26 00:12:54;;;;;;;5.32;3.20;;;;;;;;;;5024516;28;20032;-73
2022/12/26 00:15:20;;;;;;;4.50;3.13;;;;;;;;;;5024419;28;20025;-72
2022/12/26 00:17:46;;;;;;;5.93;3.22;;;;;;;;;;5022227;28;20021;-73
2022/12/26 00:20:13;;;;;;;4.97;2.85;;;;;;;;;;5025136;28;20042;-72
2022/12/26 00:22:39;;;;;;;3.22;2.35;;;;;;;;;;5024091;28;20025;-73
2022/12/26 00:25:05;;;;;;;5.10;2.90;;;;;;;;;;5024170;28;20032;-73
2022/12/26 00:27:32;;;;;;;4.50;3.10;;;;;;;;;;5023591;28;20088;-73
2022/12/26 00:29:58;;;;;;;4.50;3.08;;;;;;;;;;5020534;28;20033;-73
2022/12/26 00:32:24;;;;;;;4.53;2.92;;;;;;;;;;5006148;28;20037;-73
2022/12/26 00:34:50;;;;;;;5.18;2.83;;;;;;;;;;5024298;28;20140;-72
2022/12/26 00:37:17;;;;;;;6.70;3.42;;;;;;;;;;5028771;28;20032;-73
2022/12/26 00:39:43;;;;;;;4.50;3.05;;;;;;;;;;5011271;28;20045;-73
2022/12/26 00:42:09;;;;;;;3.65;2.72;;;;;;;;;;5043433;28;20053;-73
2022/12/26 00:44:35;;;;;;;5.22;2.60;;;;;;;;;;5031769;28;20052;-76
2022/12/26 00:47:01;;;;;;;7.78;2.92;;;;;;;;;;5038220;28;20477;-73
2022/12/26 00:49:27;;;;;;;4.45;3.20;;;;;;;;;;5029676;28;20108;-73
2022/12/26 00:51:54;;;;;;;5.57;2.80;;;;;;;;;;5047890;28;20504;-73
2022/12/26 00:54:20;;;;;;;3.28;2.30;;;;;;;;;;5041104;28;20018;-74
2022/12/26 00:56:46;;;;;;;3.42;2.63;;;;;;;;;;5043997;28;20071;-73
2022/12/26 00:59:12;;;;;;;5.25;2.60;;;;;;;;;;5041892;28;20026;-73
2022/12/26 01:01:38;;;;;;;4.75;2.78;;;;;;;;;;5027659;28;20391;-73
2022/12/26 01:04:05;;;;;;;5.35;2.97;;;;;;;;;;5026914;28;20465;-76
2022/12/26 01:06:31;;;;;;;5.28;2.88;;;;;;;;;;5027552;28;20132;-73
2022/12/26 01:08:58;;;;;;;4.10;2.50;;;;;;;;;;5026079;28;20740;-73
2022/12/26 01:11:40;;;;;;;5.50;2.60;;;;;;;;;;5041854;28;20108;-73
2022/12/26 01:14:10;;;;;;;4.78;2.72;;;;;;;;;;5046375;28;20362;-73
2022/12/26 01:16:37;;;;;;;5.45;2.92;;;;;;;;;;5027280;28;20017;-74
2022/12/26 01:19:04;;;;;;;7.55;2.72;;;;;;;;;;5045553;28;20109;-76
2022/12/26 01:21:30;;;;;;;6.25;3.22;;;;;;;;;;5031176;28;20026;-73
2022/12/26 01:23:56;;;;;;;6.60;3.20;;;;;;;;;;5029737;28;20025;-73
2022/12/26 01:26:23;;;;;;;5.97;3.55;;;;;;;;;;5046504;28;20041;-74
2022/12/26 01:28:49;;;;;;;6.00;3.03;;;;;;;;;;5046812;28;20530;-73
2022/12/26 01:31:16;;;;;;;5.78;3.42;;;;;;;;;;5046697;28;20025;-73
2022/12/26 01:33:42;;;;;;;6.53;3.30;;;;;;;;;;5044823;28;20150;-77
2022/12/26 01:36:08;;;;;;;6.60;3.38;;;;;;;;;;5046397;28;20023;-73
2022/12/26 01:38:34;;;;;;;5.13;3.25;;;;;;;;;;5046326;28;20274;-73
2022/12/26 01:41:16;;;;;;;5.28;3.53;;;;;;;;;;5026544;28;20524;-73
2022/12/26 01:43:48;;;;;;;5.72;3.15;;;;;;;;;;5026396;28;20538;-73
2022/12/26 01:46:15;;;;;;;4.07;3.00;;;;;;;;;;5025048;28;20048;-72
2022/12/26 01:48:41;;;;;;;6.22;3.70;;;;;;;;;;5016804;28;20052;-72
2022/12/26 01:51:07;;;;;;;4.97;3.30;;;;;;;;;;5034063;28;20018;-72
2022/12/26 01:53:35;;;;;;;5.75;3.25;;;;;;;;;;5026176;28;20032;-72
2022/12/26 01:56:06;;;;;;;5.55;3.28;;;;;;;;;;5044621;28;20144;-72
2022/12/26 01:58:34;;;;;;;6.20;3.40;;;;;;;;;;5027904;28;20029;-72
2022/12/26 02:01:02;;;;;;;7.45;3.30;;;;;;;;;;5036569;28;20632;-73
2022/12/26 02:06:14;;;;;;;4.72;2.90;;;;;;;;;;5031299;28;20446;-73
2022/12/26 02:08:41;;;;;;;4.57;3.10;;;;;;;;;;5027513;28;20029;-79
2022/12/26 02:11:10;;;;;;;4.95;3.00;;;;;;;;;;4989021;28;20084;-76
2022/12/26 02:13:37;;;;;;;6.38;3.40;;;;;;;;;;4987429;28;20018;-73
2022/12/26 02:16:04;;;;;;;9.10;3.47;;;;;;;;;;5019804;28;20033;-75
2022/12/26 02:18:31;;;;;;;8.25;3.60;;;;;;;;;;5028256;28;20025;-78
2022/12/26 02:21:00;;;;;;;3.72;2.90;;;;;;;;;;5027782;28;20591;-73
2022/12/26 02:23:26;;;;;;;5.97;3.25;;;;;;;;;;5025996;28;20024;-80
2022/12/26 02:25:52;;;;;;;4.00;2.53;;;;;;;;;;5044301;28;20025;-74
2022/12/26 02:28:38;;;;;;;3.22;2.53;;;;;;;;;;5025575;28;20051;-73
2022/12/26 02:31:23;;;;;;;8.52;2.70;;;;;;;;;;4963783;28;20037;-73
2022/12/26 02:34:00;;;;;;;4.45;2.50;;;;;;;;;;5033485;28;20036;-76
2022/12/26 02:36:34;;;;;;;4.88;2.15;;;;;;;;;;5025390;28;20013;-73
2022/12/26 02:39:00;;;;;;;5.57;2.65;;;;;;;;;;5023173;28;20612;-76
2022/12/26 02:41:43;;;;;;;4.32;2.67;;;;;;;;;;5020963;28;20048;-73
2022/12/26 02:47:10;;;;;;;4.60;2.72;;;;;;;;;;5025075;28;20033;-77
2022/12/26 03:17:18;;;;;;;4.68;2.78;;;;;;;;;;5022869;28;20036;-72
2022/12/26 03:18:20;;;;;;;5.30;2.30;;;;;;;;;;5023808;28;20056;-72
2022/12/26 03:20:47;;;;;;;3.25;2.13;;;;;;;;;;5031963;28;20048;-72
2022/12/26 03:23:14;;;;;;;3.15;2.40;;;;;;;;;;5032898;28;20025;-73
2022/12/26 03:28:43;;;;;;;5.10;2.45;;;;;;;;;;5029823;28;20141;-73
2022/12/26 03:31:10;;;;;;;4.88;3.03;;;;;;;;;;5043949;28;20021;-73
2022/12/26 03:36:41;;;;;;;6.18;3.13;;;;;;;;;;5028698;28;20040;-72
2022/12/26 04:19:37;;;;;;;5.13;3.08;;;;;;;;;;5027747;28;20385;-72
2022/12/26 04:44:09;;;;;;;8.52;3.53;;;;;;;;;;5152389;27;20045;-74
2022/12/26 04:46:37;;;;;;;9.75;3.60;;;;;;;;;;5152316;27;20064;-72
2022/12/26 04:51:49;;;;;;;6.43;3.80;;;;;;;;;;5152232;27;20504;-74
2022/12/26 04:54:15;;;;;;;8.48;4.45;;;;;;;;;;5150683;27;20018;-73
2022/12/26 04:56:42;;;;;;;7.35;3.80;;;;;;;;;;5152416;27;20047;-72
2022/12/26 04:59:08;;;;;;;5.38;3.58;;;;;;;;;;5152250;27;20098;-79
2022/12/26 05:09:53;;;;;;;5.57;3.22;;;;;;;;;;5151940;27;20025;-74
2022/12/26 05:12:20;;;;;;;3.97;2.90;;;;;;;;;;5151739;27;20530;-75
2022/12/26 05:14:46;;;;;;;4.47;2.80;;;;;;;;;;5150152;27;20030;-78
2022/12/26 05:31:00;;;;;;;4.07;2.55;;;;;;;;;;5151751;27;20027;-75
2022/12/26 05:36:13;;;;;;;5.28;2.78;;;;;;;;;;5149920;27;20496;-73
2022/12/26 05:38:39;;;;;;;4.40;2.75;;;;;;;;;;5142150;27;20034;-76
2022/12/26 05:41:05;;;;;;;3.55;2.78;;;;;;;;;;5137732;27;20027;-78
2022/12/26 05:43:32;;;;;;;3.20;2.63;;;;;;;;;;5134679;27;20022;-77
2022/12/26 05:45:58;;;;;;;4.28;2.47;;;;;;;;;;5137285;27;20030;-74
2022/12/26 05:48:24;;;;;;;6.88;3.78;;;;;;;;;;5137443;27;20038;-79
2022/12/26 05:50:50;;;;;;;6.22;3.10;;;;;;;;;;5137281;27;20019;-74
2022/12/26 05:53:16;;;;;;;7.93;3.33;;;;;;;;;;5137367;27;20023;-79
2022/12/26 05:55:43;;;;;;;5.65;2.65;;;;;;;;;;5135591;27;20023;-78
2022/12/26 05:58:09;;;;;;;3.70;2.33;;;;;;;;;;5136925;27;20029;-79
2022/12/26 06:00:35;;;;;;;5.20;2.25;;;;;;;;;;5136817;27;20048;-79
2022/12/26 06:03:01;;;;;;;4.78;2.28;;;;;;;;;;5137097;27;20030;-73
2022/12/26 06:05:28;;;;;;;3.33;2.75;;;;;;;;;;5135866;27;20058;-77
2022/12/26 06:07:54;;;;;;;2.88;2.17;;;;;;;;;;5133567;27;20031;-78
2022/12/26 06:10:20;;;;;;;4.00;2.47;;;;;;;;;;5116807;27;20033;-77
2022/12/26 06:12:46;;;;;;;3.05;1.80;;;;;;;;;;5123038;27;20031;-79
2022/12/26 06:15:12;;;;;;;2.35;1.70;;;;;;;;;;5117946;27;20398;-76
2022/12/26 06:17:39;;;;;;;3.40;2.20;;;;;;;;;;5132295;27;20118;-77
2022/12/26 06:20:05;;;;;;;2.40;1.95;;;;;;;;;;5123660;27;20027;-78
2022/12/26 06:22:31;;;;;;;3.53;2.13;;;;;;;;;;5122243;27;20023;-78
2022/12/26 06:24:58;;;;;;;2.30;1.92;;;;;;;;;;5121225;27;20076;-78
2022/12/26 06:27:24;;;;;;;4.88;2.05;;;;;;;;;;5130090;27;20034;-77
2022/12/26 06:29:50;;;;;;;3.28;1.90;;;;;;;;;;5126690;27;20019;-75
2022/12/26 06:32:16;;;;;;;4.30;2.25;;;;;;;;;;5118730;27;20027;-76
2022/12/26 06:34:42;;;;;;;4.03;2.10;;;;;;;;;;5122841;27;20015;-77
2022/12/26 06:37:09;;;;;;;4.13;1.85;;;;;;;;;;5118452;27;20057;-80
2022/12/26 06:39:35;;;;;;;2.60;1.88;;;;;;;;;;5116395;27;20061;-76
2022/12/26 06:42:03;;;;;;;3.33;1.80;;;;;;;;;;5118889;27;20027;-79
2022/12/26 06:44:34;;;;;;;2.42;1.80;;;;;;;;;;5120567;27;20012;-80
2022/12/26 06:47:02;;;;;;;4.85;2.15;;;;;;;;;;5119881;27;20039;-78
2022/12/26 06:49:28;;;;;;;3.28;2.20;;;;;;;;;;5118343;27;20016;-79
2022/12/26 06:51:54;;;;;;;4.32;2.92;;;;;;;;;;5129107;27;20783;-83
2022/12/26 06:54:21;;;;;;;6.65;2.63;;;;;;;;;;5125520;27;20482;-81
2022/12/26 06:56:47;;;;;;;3.92;2.53;;;;;;;;;;5123808;27;20515;-79
2022/12/26 06:59:13;;;;;;;5.00;2.70;;;;;;;;;;5116376;27;20023;-77
2022/12/26 07:01:39;;;;;;;3.67;2.38;;;;;;;;;;5118845;27;20021;-77
2022/12/26 07:04:05;;;;;;;4.22;2.53;;;;;;;;;;5116154;27;20019;-76
2022/12/26 07:06:32;;;;;;;4.40;2.67;;;;;;;;;;5111937;27;20024;-78
2022/12/26 07:09:00;;;;;;;3.65;3.00;;;;;;;;;;5113643;27;20030;-79
2022/12/26 07:11:28;;;;;;;6.53;3.40;;;;;;;;;;5109904;27;20023;-78
2022/12/26 07:13:55;;;;;;;4.47;3.38;;;;;;;;;;5122577;27;20024;-79
2022/12/26 07:16:21;;;;;;;5.28;3.50;;;;;;;;;;5112615;27;20023;-79
2022/12/26 07:18:47;;;;;;;6.70;3.60;;;;;;;;;;5107208;27;20035;-78
2022/12/26 07:21:14;;;;;;;5.50;4.22;;;;;;;;;;5119105;27;20016;-82
2022/12/26 07:23:41;;;;;;;6.50;4.20;;;;;;;;;;5107939;27;20724;-78
2022/12/26 07:26:08;;;;;;;6.72;4.80;;;;;;;;;;5112147;27;20020;-76
2022/12/26 07:28:34;;;;;;;9.48;5.20;;;;;;;;;;5111122;27;20598;-75
2022/12/26 07:31:01;;;;;;;7.03;4.15;;;;;;;;;;5111620;27;20104;-75
2022/12/26 07:33:28;;;;;;;6.57;4.43;;;;;;;;;;5110306;27;20142;-75
2022/12/26 07:35:55;;;;;;;7.97;4.57;;;;;;;;;;5108060;27;20043;-75
2022/12/26 07:38:21;;;;;;;6.85;4.38;;;;;;;;;;5109336;27;20051;-75
2022/12/26 07:40:48;;;;;;;6.88;4.65;;;;;;;;;;5113822;27;20067;-75
2022/12/26 07:43:14;;;;;;;8.63;4.70;;;;;;;;;;5113652;27;20045;-75
2022/12/26 07:45:40;;;;;;;8.68;4.93;;;;;;;;;;5106777;27;20019;-75
2022/12/26 07:48:06;;;;;;;7.30;4.40;;;;;;;;;;5117892;27;20037;-75
2022/12/26 07:50:32;;;;;;;11.85;6.15;;;;;;;;;;5108908;27;20521;-76
2022/12/26 07:52:59;;;;;;;7.43;5.47;;;;;;;;;;5107224;27;20024;-78
2022/12/26 07:55:25;;;;;;;7.75;5.38;;;;;;;;;;5114392;27;20118;-75
2022/12/26 07:57:52;;;;;;;10.55;5.75;;;;;;;;;;5113684;27;20415;-75
2022/12/26 08:00:18;;;;;;;10.32;5.38;;;;;;;;;;5117735;27;20089;-75
2022/12/26 08:02:48;;;;;;;8.65;5.50;;;;;;;;;;5105573;27;20037;-76
2022/12/26 08:05:15;;;;;;;7.75;5.20;;;;;;;;;;5110967;27;20034;-76
2022/12/26 08:07:41;;;;;;;6.75;5.18;;;;;;;;;;5105742;27;20615;-75
2022/12/26 08:10:07;;;;;;;7.03;4.78;;;;;;;;;;5106118;27;20027;-75
2022/12/26 08:12:34;;;;;;;13.05;5.85;;;;;;;;;;5109937;27;20163;-76
2022/12/26 08:15:00;;;;;;;10.65;6.13;;;;;;;;;;5112611;27;20030;-75
2022/12/26 08:17:26;;;;;;;8.75;5.90;;;;;;;;;;5110158;27;20020;-75
2022/12/26 08:19:52;;;;;;;11.77;7.30;;;;;;;;;;5107358;27;20071;-75
2022/12/26 08:22:18;;;;;;;14.48;7.30;;;;;;;;;;5117933;27;20030;-75
2022/12/26 08:24:44;;;;;;;10.98;6.30;;;;;;;;;;5110058;27;20034;-75
2022/12/26 08:27:11;;;;;;;13.88;6.35;;;;;;;;;;5117842;27;20032;-75
2022/12/26 08:29:37;;;;;;;11.63;6.60;;;;;;;;;;5107389;27;20349;-75
2022/12/26 08:32:03;;;;;;;9.18;6.63;;;;;;;;;;5109694;27;20264;-75
2022/12/26 08:34:33;;;;;;;15.38;7.43;;;;;;;;;;5112075;27;20023;-76
2022/12/26 08:36:59;;;;;;;12.07;7.15;;;;;;;;;;5114869;27;20052;-75
2022/12/26 08:39:26;;;;;;;11.82;7.13;;;;;;;;;;5109775;27;20027;-75
2022/12/26 08:41:52;;;;;;;10.15;7.57;;;;;;;;;;5105588;27;20039;-77
2022/12/26 08:44:18;;;;;;;16.10;7.88;;;;;;;;;;5111503;27;20023;-75
2022/12/26 08:46:45;;;;;;;14.88;8.25;;;;;;;;;;5112679;27;20031;-79
2022/12/26 08:49:11;;;;;;;14.40;8.38;;;;;;;;;;5105955;27;20064;-78
2022/12/26 08:51:38;;;;;;;11.27;7.80;;;;;;;;;;5110096;27;20114;-87
2022/12/26 08:54:04;;;;;;;10.73;6.85;;;;;;;;;;5107438;27;20165;-79
2022/12/26 08:56:30;;;;;;;10.82;6.38;;;;;;;;;;5111206;27;20051;-79
2022/12/26 08:58:57;;;;;;;10.30;6.93;;;;;;;;;;5106708;27;20046;-81
2022/12/26 09:01:26;;;;;;;11.73;7.57;;;;;;;;;;5112387;27;20092;-78
2022/12/26 09:03:52;;;;;;;11.65;6.32;;;;;;;;;;5106989;27;20028;-82
2022/12/26 09:06:19;;;;;;;14.77;7.43;;;;;;;;;;5108016;27;20024;-81
2022/12/26 09:08:45;;;;;;;10.40;6.63;;;;;;;;;;5113263;27;20030;-80
2022/12/26 09:11:16;;;;;;;10.05;5.90;;;;;;;;;;5123193;27;20026;-78
2022/12/26 09:13:42;;;;;;;11.85;6.38;;;;;;;;;;5111079;27;20050;-79
2022/12/26 09:16:15;;;;;;;10.23;6.30;;;;;;;;;;5112504;27;20042;-82
2022/12/26 09:18:42;;;;;;;7.75;5.63;;;;;;;;;;5112899;27;21239;-79
2022/12/26 09:21:09;;;;;;;7.82;4.93;;;;;;;;;;5107689;27;20070;-79
2022/12/26 09:23:36;;;;;;;8.32;5.10;;;;;;;;;;5111249;27;20297;-79
2022/12/26 09:26:04;;;;;;;10.30;5.18;;;;;;;;;;5109971;27;20016;-82
2022/12/26 09:28:30;;;;;;;6.55;4.70;;;;;;;;;;5117441;27;20030;-76
2022/12/26 09:30:59;;;;;;;8.65;4.63;;;;;;;;;;5112088;27;20031;-76
2022/12/26 09:33:25;;;;;;;8.43;4.72;;;;;;;;;;5105398;27;20093;-77
2022/12/26 09:35:51;;;;;;;8.23;5.00;;;;;;;;;;5116528;27;20618;-79
2022/12/26 09:38:19;;;;;;;9.73;4.90;;;;;;;;;;5111835;27;20126;-80
2022/12/26 09:40:58;;;;;;;7.38;5.20;;;;;;;;;;5110285;27;20104;-80
2022/12/26 09:43:34;;;;;;;8.40;5.43;;;;;;;;;;5115561;27;20027;-79
2022/12/26 09:46:06;;;;;;;5.97;4.95;;;;;;;;;;5118406;27;20648;-78
2022/12/26 09:48:39;;;;;;;9.45;5.60;;;;;;;;;;5109252;27;20487;-79
2022/12/26 09:51:05;;;;;;;8.20;5.68;;;;;;;;;;5109906;27;20023;-78
2022/12/26 09:53:34;;;;;;;11.35;6.15;;;;;;;;;;5109693;27;20084;-78
2022/12/26 09:56:03;;;;;;;7.18;5.22;;;;;;;;;;5117043;27;20026;-79
2022/12/26 09:58:42;;;;;;;9.48;5.60;;;;;;;;;;5109774;27;20608;-79
2022/12/26 10:01:10;;;;;;;9.43;6.40;;;;;;;;;;5109153;27;20606;-79
2022/12/26 10:03:42;;;;;;;15.13;7.78;;;;;;;;;;5111820;27;20111;-79
2022/12/26 10:06:08;;;;;;;;;;;;;;;;;;5117561;27;20038;-78
2022/12/26 10:08:46;;;;;;;11.20;5.97;;;;;;;;;;5113362;27;19963;-78
2022/12/26 10:11:20;;;;;;;11.88;7.40;;;;;;;;;;5106796;27;20334;-77
2022/12/26 10:13:51;;;;;;;11.13;7.15;;;;;;;;;;5117629;27;20471;-77
2022/12/26 10:16:34;;;;;;;9.75;6.38;;;;;;;;;;5107614;27;20028;-78
2022/12/26 10:19:01;;;;;;;11.93;6.40;;;;;;;;;;5112525;27;20027;-77
2022/12/26 10:21:46;;;;;;;10.38;6.72;;;;;;;;;;5109181;27;20505;-78
2022/12/26 10:24:16;;;;;;;11.07;6.90;;;;;;;;;;5107417;27;20391;-78
2022/12/26 10:26:50;;;;;;;11.30;6.55;;;;;;;;;;5112474;27;20055;-77
2022/12/26 10:29:36;;;;;;;9.18;5.93;;;;;;;;;;5108454;27;20023;-77
2022/12/26 10:32:06;;;;;;;10.65;7.13;;;;;;;;;;5114918;27;20030;-78
2022/12/26 10:34:51;;;;;;;9.75;6.53;;;;;;;;;;5112865;27;20043;-77
2022/12/26 10:37:20;;;;;;;12.27;6.72;;;;;;;;;;5115040;27;20101;-77
2022/12/26 10:39:57;;;;;;;9.68;6.72;;;;;;;;;;5113403;27;20521;-77
2022/12/26 10:42:30;;;;;;;14.48;7.82;;;;;;;;;;5117995;27;20114;-78
2022/12/26 10:44:57;;;;;;;9.55;7.35;;;;;;;;;;5108243;27;20457;-77
2022/12/26 10:47:39;;;;;;;8.93;6.28;;;;;;;;;;5110709;27;20058;-77
2022/12/26 10:50:06;;;;;;;10.43;6.85;;;;;;;;;;5107514;27;20031;-79
2022/12/26 10:52:34;;;;;;;10.85;6.68;;;;;;;;;;5107724;27;20054;-78
2022/12/26 10:55:00;;;;;;;10.02;7.10;;;;;;;;;;5116174;27;20039;-77
2022/12/26 10:57:30;;;;;;;12.10;6.40;;;;;;;;;;5107739;27;20126;-78
2022/12/26 10:59:57;;;;;;;10.75;6.43;;;;;;;;;;5115700;27;20457;-78
2022/12/26 11:02:28;;;;;;;7.53;6.40;;;;;;;;;;5108776;27;20031;-79
2022/12/26 11:05:08;;;;;;;10.57;5.93;;;;;;;;;;5113190;27;20084;-78
2022/12/26 11:07:40;;;;;;;9.98;6.47;;;;;;;;;;5110362;27;20110;-78
2022/12/26 11:10:13;;;;;;;15.30;7.60;;;;;;;;;;5111475;27;20072;-77
2022/12/26 11:12:42;;;;;;;10.57;6.07;;;;;;;;;;5106288;27;20031;-80
2022/12/26 11:15:43;;;;;;;13.10;6.43;;;;;;;;;;5114235;27;20038;-77
2022/12/26 11:18:16;;;;;;;8.37;5.97;;;;;;;;;;5030755;28;20033;-78
2022/12/26 11:20:43;;;;;;;8.80;5.70;;;;;;;;;;5097543;27;20044;-80
2022/12/26 11:23:18;;;;;;;9.88;5.72;;;;;;;;;;5113913;27;20030;-78
2022/12/26 11:25:51;;;;;;;7.75;5.28;;;;;;;;;;5105068;27;20428;-78
2022/12/26 11:28:20;;;;;;;10.32;5.97;;;;;;;;;;5117727;27;20027;-78
2022/12/26 11:30:47;;;;;;;9.48;6.05;;;;;;;;;;5106555;27;20034;-78
2022/12/26 11:33:19;;;;;;;10.52;5.95;;;;;;;;;;5108409;27;20015;-77
2022/12/26 11:35:50;;;;;;;11.75;7.45;;;;;;;;;;5106512;27;20484;-78
2022/12/26 11:38:33;;;;;;;12.95;8.35;;;;;;;;;;5110459;27;20061;-77
2022/12/26 11:43:46;;;;;;;18.23;9.73;;;;;;;;;;5115578;27;20431;-77
2022/12/26 11:46:12;;;;;;;16.25;9.23;;;;;;;;;;5114246;27;20031;-79
2022/12/26 11:48:39;;;;;;;12.50;8.27;;;;;;;;;;5108602;27;20110;-79
2022/12/26 11:51:05;;;;;;;17.60;9.38;;;;;;;;;;5110139;27;20045;-77
2022/12/26 11:53:33;;;;;;;12.02;8.55;;;;;;;;;;5111291;27;20024;-77
2022/12/26 11:56:02;;;;;;;12.70;9.68;;;;;;;;;;5112183;27;20039;-79
2022/12/26 11:58:29;;;;;;;11.88;8.20;;;;;;;;;;5108866;27;20023;-76
2022/12/26 12:00:59;;;;;;;12.73;8.02;;;;;;;;;;5111044;27;20028;-78
2022/12/26 12:03:34;;;;;;;14.23;8.85;;;;;;;;;;5109548;27;20058;-77
2022/12/26 12:06:19;;;;;;;13.93;9.02;;;;;;;;;;5107607;27;20837;-76
2022/12/26 12:08:57;;;;;;;14.10;9.23;;;;;;;;;;5109201;27;20058;-76
2022/12/26 12:11:35;;;;;;;14.93;8.68;;;;;;;;;;5113076;27;20058;-77
2022/12/26 12:14:08;;;;;;;11.38;8.13;;;;;;;;;;5109948;27;20921;-79
2022/12/26 12:16:37;;;;;;;12.63;7.88;;;;;;;;;;5102676;27;20110;-76
2022/12/26 12:19:20;;;;;;;12.73;7.70;;;;;;;;;;5108204;27;21427;-77
2022/12/26 12:21:55;;;;;;;9.82;6.20;;;;;;;;;;5104503;27;20036;-77
2022/12/26 12:24:39;;;;;;;7.65;5.35;;;;;;;;;;5109959;27;20047;-77
2022/12/26 12:27:05;;;;;;;11.82;6.28;;;;;;;;;;5106884;27;20043;-78
2022/12/26 12:29:50;;;;;;;6.57;5.32;;;;;;;;;;5117157;27;20436;-77
2022/12/26 12:32:17;;;;;;;8.52;5.80;;;;;;;;;;5111850;27;20026;-79
2022/12/26 12:34:52;;;;;;;7.05;6.05;;;;;;;;;;5106640;27;20509;-78
2022/12/26 12:37:31;;;;;;;8.75;5.22;;;;;;;;;;5107243;27;20697;-78
2022/12/26 12:40:16;;;;;;;7.30;5.63;;;;;;;;;;5116179;27;20103;-78
2022/12/26 12:43:02;;;;;;;7.53;5.05;;;;;;;;;;5106753;27;20419;-79
2022/12/26 12:45:31;;;;;;;8.27;5.28;;;;;;;;;;5078375;27;20047;-79
2022/12/26 12:48:00;;;;;;;9.90;5.30;;;;;;;;;;5107909;27;20050;-79
2022/12/26 12:50:35;;;;;;;9.15;4.88;;;;;;;;;;5106078;27;20028;-79
2022/12/26 12:53:20;;;;;;;9.05;4.93;;;;;;;;;;5113252;27;20038;-79
2022/12/26 12:56:00;;;;;;;8.48;5.10;;;;;;;;;;5109231;27;20498;-79
2022/12/26 12:58:44;;;;;;;8.30;4.88;;;;;;;;;;5114694;27;20023;-78
2022/12/26 13:01:18;;;;;;;6.28;4.93;;;;;;;;;;5109983;27;20076;-79
2022/12/26 13:04:05;;;;;;;7.32;5.10;;;;;;;;;;5112895;27;20022;-79
2022/12/26 13:06:37;;;;;;;8.13;4.75;;;;;;;;;;5112904;27;20035;-77
2022/12/26 13:09:15;;;;;;;5.82;4.70;;;;;;;;;;5110215;27;20055;-78
2022/12/26 13:11:45;;;;;;;7.38;4.68;;;;;;;;;;5112762;27;20032;-77
2022/12/26 13:14:23;;;;;;;6.40;5.07;;;;;;;;;;5121705;27;20040;-76
2022/12/26 13:16:55;;;;;;;7.28;4.60;;;;;;;;;;5110417;27;20025;-80
2022/12/26 13:19:24;;;;;;;9.00;5.63;;;;;;;;;;5118725;27;20431;-81
2022/12/26 13:21:52;;;;;;;8.35;5.03;;;;;;;;;;5143456;27;20427;-81
2022/12/26 13:24:30;;;;;;;7.80;5.82;;;;;;;;;;5114990;27;20103;-77
2022/12/26 13:27:04;;;;;;;8.82;5.85;;;;;;;;;;5111739;27;20666;-77
2022/12/26 13:29:38;;;;;;;8.43;6.30;;;;;;;;;;5108694;27;20555;-77
2022/12/26 13:32:05;;;;;;;9.50;5.65;;;;;;;;;;5116142;27;20030;-77
2022/12/26 13:34:31;;;;;;;7.88;5.55;;;;;;;;;;5112404;27;20558;-77
2022/12/26 13:36:59;;;;;;;8.07;5.97;;;;;;;;;;5107480;27;20674;-78
2022/12/26 13:39:25;;;;;;;8.75;5.03;;;;;;;;;;5109111;27;20024;-78
2022/12/26 13:44:42;;;;;;;14.25;5.95;;;;;;;;;;5113040;27;20489;-75
2022/12/26 13:47:27;;;;;;;9.15;5.57;;;;;;;;;;5109761;27;20035;-75
2022/12/26 13:49:53;;;;;;;11.65;5.70;;;;;;;;;;5108042;27;20040;-75
2022/12/26 13:52:33;;;;;;;9.85;6.20;;;;;;;;;;5107781;27;20130;-76
2022/12/26 13:55:08;;;;;;;12.07;6.30;;;;;;;;;;5111800;27;20076;-76
2022/12/26 13:57:35;;;;;;;8.23;5.65;;;;;;;;;;5109537;27;20098;-75
2022/12/26 14:00:04;;;;;;;9.63;5.80;;;;;;;;;;5119156;27;20046;-75
2022/12/26 14:02:55;;;;;;;6.80;5.43;;;;;;;;;;5113123;27;20034;-75
2022/12/26 14:05:26;;;;;;;8.20;6.13;;;;;;;;;;5110871;27;20969;-80
2022/12/26 14:08:02;;;;;;;10.70;6.15;;;;;;;;;;5113891;27;20043;-74
2022/12/26 14:10:33;;;;;;;11.50;6.57;;;;;;;;;;5124834;27;20011;-75
2022/12/26 14:13:09;;;;;;;12.63;6.55;;;;;;;;;;5109829;27;20024;-75
2022/12/26 14:15:36;;;;;;;11.20;6.30;;;;;;;;;;5113815;27;20026;-74
2022/12/26 14:18:20;;;;;;;8.82;5.78;;;;;;;;;;5108068;27;20035;-75
2022/12/26 14:20:52;;;;;;;8.50;5.07;;;;;;;;;;5106995;27;20371;-75
2022/12/26 14:23:18;;;;;;;9.82;5.88;;;;;;;;;;5111832;27;20527;-75
2022/12/26 14:25:45;;;;;;;9.70;5.28;;;;;;;;;;5107108;27;20026;-74
2022/12/26 14:28:19;;;;;;;9.35;5.68;;;;;;;;;;5110988;27;20055;-73
2022/12/26 14:31:18;;;;;;;10.60;6.13;;;;;;;;;;5105789;27;20020;-73
2022/12/26 14:34:02;;;;;;;8.00;6.07;;;;;;;;;;5085375;27;20478;-75
2022/12/26 14:36:51;;;;;;;9.18;6.18;;;;;;;;;;5107921;27;20039;-73
2022/12/26 14:39:17;;;;;;;8.85;5.97;;;;;;;;;;5124596;27;20027;-74
2022/12/26 14:45:01;;;;;;;9.40;6.15;;;;;;;;;;5075694;27;20475;-75
2022/12/26 14:47:36;;;;;;;8.30;5.53;;;;;;;;;;5109569;27;20885;-75
2022/12/26 14:50:35;;;;;;;10.18;6.95;;;;;;;;;;5107694;27;20024;-75
2022/12/26 14:53:19;;;;;;;10.23;6.07;;;;;;;;;;5069586;27;20035;-76
2022/12/26 14:55:46;;;;;;;10.73;6.50;;;;;;;;;;5122579;27;20080;-75
2022/12/26 14:58:32;;;;;;;10.38;6.28;;;;;;;;;;5107825;27;20058;-75
2022/12/26 15:01:17;;;;;;;14.18;6.38;;;;;;;;;;5111050;27;20036;-76
2022/12/26 15:03:46;;;;;;;13.15;6.40;;;;;;;;;;5112706;27;20027;-76
2022/12/26 15:06:18;;;;;;;9.07;5.72;;;;;;;;;;5108996;27;20498;-76
2022/12/26 15:08:44;;;;;;;;;;;;;;;;;;5107413;27;20035;-76
2022/12/26 15:11:22;;;;;;;7.70;5.60;;;;;;;;;;5106252;27;19939;-77
2022/12/26 15:13:58;;;;;;;8.70;5.07;;;;;;;;;;5116937;27;20023;-76
2022/12/26 15:16:44;;;;;;;8.95;5.07;;;;;;;;;;5108428;27;20080;-76
2022/12/26 15:19:28;;;;;;;9.88;5.15;;;;;;;;;;5109762;27;20024;-76
2022/12/26 15:22:04;;;;;;;6.53;4.63;;;;;;;;;;5112873;27;20028;-76
2022/12/26 15:24:39;;;;;;;6.63;5.00;;;;;;;;;;5120929;27;20029;-76
2022/12/26 15:27:05;;;;;;;5.78;4.25;;;;;;;;;;5107060;27;20085;-76
2022/12/26 15:29:45;;;;;;;7.25;4.47;;;;;;;;;;5109151;27;20016;-76
2022/12/26 15:32:19;;;;;;;6.30;4.32;;;;;;;;;;5112478;27;20025;-76
2022/12/26 15:34:49;;;;;;;7.22;4.07;;;;;;;;;;5110535;27;20364;-76
2022/12/26 15:37:15;;;;;;;4.78;4.00;;;;;;;;;;5108486;27;20047;-76
2022/12/26 15:39:51;;;;;;;6.00;3.97;;;;;;;;;;5112335;27;20485;-76
2022/12/26 15:42:27;;;;;;;8.63;4.10;;;;;;;;;;5109666;27;20028;-77
2022/12/26 15:45:16;;;;;;;4.50;3.72;;;;;;;;;;5105751;27;20038;-78
2022/12/26 15:47:47;;;;;;;4.88;3.92;;;;;;;;;;5118284;27;20494;-76
2022/12/26 15:50:19;;;;;;;6.45;3.30;;;;;;;;;;5105852;27;20093;-76
2022/12/26 15:53:01;;;;;;;7.50;3.65;;;;;;;;;;5112676;27;20075;-76
2022/12/26 15:55:27;;;;;;;4.60;3.72;;;;;;;;;;5109423;27;20030;-76
2022/12/26 15:57:53;;;;;;;5.18;2.80;;;;;;;;;;5120015;27;20019;-75
2022/12/26 16:00:26;;;;;;;5.93;2.85;;;;;;;;;;5109793;27;20031;-75
2022/12/26 16:03:06;;;;;;;5.18;2.70;;;;;;;;;;5110872;27;20067;-76
2022/12/26 16:05:47;;;;;;;3.95;2.58;;;;;;;;;;5109706;27;20503;-75
2022/12/26 16:08:25;;;;;;;5.55;3.00;;;;;;;;;;5116852;27;20039;-76
2022/12/26 16:11:12;;;;;;;7.60;3.08;;;;;;;;;;5114495;27;20027;-76
2022/12/26 16:13:48;;;;;;;4.35;2.95;;;;;;;;;;5111239;27;20080;-76
2022/12/26 16:16:22;;;;;;;4.97;3.55;;;;;;;;;;5107326;27;20023;-76
2022/12/26 16:18:48;;;;;;;4.47;2.80;;;;;;;;;;5109127;27;20024;-76
2022/12/26 16:24:01;;;;;;;4.78;3.20;;;;;;;;;;5113003;27;20087;-76
2022/12/26 16:26:29;;;;;;;4.40;3.30;;;;;;;;;;5112143;27;20432;-76
2022/12/26 16:28:58;;;;;;;4.05;3.40;;;;;;;;;;5114099;27;20028;-76
2022/12/26 16:31:25;;;;;;;3.70;2.97;;;;;;;;;;5109087;27;20118;-77
2022/12/26 16:33:52;;;;;;;5.60;3.30;;;;;;;;;;5111851;27;20019;-76
2022/12/26 16:36:28;;;;;;;6.90;3.97;;;;;;;;;;5106166;27;20521;-77
2022/12/26 16:38:55;;;;;;;4.07;3.33;;;;;;;;;;5108560;27;20114;-76
2022/12/26 16:41:23;;;;;;;7.60;3.85;;;;;;;;;;5102170;27;20453;-76
2022/12/26 16:43:49;;;;;;;4.72;4.20;;;;;;;;;;5117086;27;20019;-77
2022/12/26 16:46:21;;;;;;;6.57;4.07;;;;;;;;;;5112259;27;20094;-76
2022/12/26 16:48:52;;;;;;;4.60;4.05;;;;;;;;;;5108603;27;20035;-77
2022/12/26 16:51:31;;;;;;;6.07;3.90;;;;;;;;;;5104348;27;20111;-76
2022/12/26 16:54:13;;;;;;;7.10;4.25;;;;;;;;;;5111479;27;20034;-77
2022/12/26 16:56:39;;;;;;;6.15;4.25;;;;;;;;;;5110484;27;20663;-76
2022/12/26 16:59:15;;;;;;;4.60;3.47;;;;;;;;;;5104400;27;20033;-77
2022/12/26 17:01:41;;;;;;;7.65;4.30;;;;;;;;;;5107494;27;20032;-77
2022/12/26 17:04:17;;;;;;;6.35;3.90;;;;;;;;;;5102929;27;20485;-77
2022/12/26 17:07:09;;;;;;;6.22;4.38;;;;;;;;;;5110436;27;20055;-77
2022/12/26 17:09:43;;;;;;;5.90;4.05;;;;;;;;;;5105907;27;20038;-77
2022/12/26 17:12:16;;;;;;;6.15;4.20;;;;;;;;;;5118277;27;20099;-77
2022/12/26 17:14:46;;;;;;;6.97;4.00;;;;;;;;;;5105296;27;20032;-77
2022/12/26 17:17:21;;;;;;;7.60;4.10;;;;;;;;;;5109159;27;20317;-77
2022/12/26 17:19:47;;;;;;;6.45;4.22;;;;;;;;;;5107552;27;20015;-77